createdAt,value
2022-09-21T00:01:32.655Z,101713.00
2022-09-21T00:04:03.760Z,101697.34
2022-09-21T00:06:35.814Z,101700.84
2022-09-21T00:09:06.280Z,101698.22
2022-09-21T00:11:33.847Z,101700.00
2022-09-21T00:14:10.292Z,101699.94
2022-09-21T00:16:42.717Z,101699.78
2022-09-21T00:19:10.614Z,101673.38
2022-09-21T00:21:38.206Z,101668.94
2022-09-21T00:24:08.034Z,101679.47
2022-09-21T00:26:35.014Z,101684.81
2022-09-21T00:29:18.782Z,101665.66
2022-09-21T00:31:46.755Z,101677.00
2022-09-21T00:34:13.518Z,101673.50
2022-09-21T00:36:40.228Z,101663.94
2022-09-21T00:39:06.956Z,101527.56
2022-09-21T00:41:38.098Z,101280.13
2022-09-21T00:44:20.011Z,101289.84
2022-09-21T00:46:53.360Z,101283.00
2022-09-21T00:49:23.725Z,101287.38
2022-09-21T00:52:00.447Z,101293.53
2022-09-21T00:54:33.646Z,101275.78
2022-09-21T00:57:01.551Z,101279.25
2022-09-21T00:59:36.835Z,101289.72
2022-09-21T01:02:05.666Z,101270.50
2022-09-21T01:04:33.086Z,101278.34
2022-09-21T01:07:03.837Z,101277.44
2022-09-21T01:09:30.579Z,101289.75
2022-09-21T01:12:18.805Z,101289.78
2022-09-21T01:15:23.770Z,101292.44
2022-09-21T01:18:00.614Z,101307.41
2022-09-21T01:20:46.053Z,101296.91
2022-09-21T01:23:26.453Z,101298.72
2022-09-21T01:25:58.984Z,101323.34
2022-09-21T01:28:41.003Z,101317.38
2022-09-21T01:31:16.767Z,101331.59
2022-09-21T01:33:55.259Z,101332.69
2022-09-21T01:36:30.307Z,101345.88
2022-09-21T01:39:08.339Z,101352.88
2022-09-21T01:41:38.174Z,101359.97
2022-09-21T01:44:13.605Z,101375.81
2022-09-21T01:46:41.592Z,101373.09
2022-09-21T01:49:19.189Z,101363.34
2022-09-21T01:51:51.843Z,101373.03
2022-09-21T01:54:33.784Z,101380.16
2022-09-21T01:57:41.734Z,101385.50
2022-09-21T02:00:08.861Z,101393.44
2022-09-21T02:02:44.924Z,101395.19
2022-09-21T02:05:12.362Z,101404.78
2022-09-21T02:07:42.472Z,101414.47
2022-09-21T02:10:14.660Z,101417.97
2022-09-21T02:12:41.236Z,101412.84
2022-09-21T02:15:08.608Z,101435.53
2022-09-21T02:17:42.594Z,101442.56
2022-09-21T02:20:30.338Z,101447.84
2022-09-21T02:23:17.091Z,101453.97
2022-09-21T02:26:13.388Z,101453.94
2022-09-21T02:28:43.014Z,101454.84
2022-09-21T02:31:21.519Z,101479.31
2022-09-21T02:33:58.859Z,101467.06
2022-09-21T02:36:37.895Z,101479.25
2022-09-21T02:39:10.536Z,101485.44
2022-09-21T02:41:49.338Z,101479.25
2022-09-21T02:44:32.599Z,101486.19
2022-09-21T02:47:10.020Z,101490.56
2022-09-21T02:49:43.941Z,101495.84
2022-09-21T02:52:16.376Z,101491.41
2022-09-21T02:54:46.321Z,101498.34
2022-09-21T02:57:16.021Z,101497.44
2022-09-21T02:59:43.303Z,101500.00
2022-09-21T03:02:11.453Z,101508.69
2022-09-21T03:04:39.793Z,101510.44
2022-09-21T03:07:06.140Z,101506.13
2022-09-21T03:09:32.747Z,101510.44
2022-09-21T03:11:59.182Z,101486.06
2022-09-21T03:14:26.866Z,101494.84
2022-09-21T03:16:53.308Z,101494.91
2022-09-21T03:19:22.209Z,101505.44
2022-09-21T03:21:49.685Z,101505.41
2022-09-21T03:24:18.764Z,101523.78
2022-09-21T03:26:47.229Z,101509.00
2022-09-21T03:29:17.723Z,101515.97
2022-09-21T03:31:44.198Z,101516.84
2022-09-21T03:34:17.090Z,101501.19
2022-09-21T03:36:43.724Z,101508.06
2022-09-21T03:39:10.119Z,101511.28
2022-09-21T03:41:38.648Z,101484.84
2022-09-21T03:44:06.438Z,101483.16
2022-09-21T03:46:35.564Z,101482.47
2022-09-21T03:49:06.399Z,101479.88
2022-09-21T03:51:38.810Z,101475.69
2022-09-21T03:54:06.863Z,101481.00
2022-09-21T03:56:35.490Z,101479.34
2022-09-21T03:59:13.163Z,101478.56
2022-09-21T04:01:40.327Z,101482.97
2022-09-21T04:04:09.499Z,101495.22
2022-09-21T04:06:36.391Z,101492.59
2022-09-21T04:09:02.940Z,101460.34
2022-09-21T04:11:29.861Z,101460.34
2022-09-21T04:14:00.087Z,101456.84
2022-09-21T04:16:32.270Z,101448.09
2022-09-21T04:19:01.492Z,101446.38
2022-09-21T04:21:29.295Z,101460.34
2022-09-21T04:23:56.418Z,101462.09
2022-09-21T04:26:27.473Z,101457.78
2022-09-21T04:29:02.215Z,101467.25
2022-09-21T04:31:31.421Z,101465.44
2022-09-21T04:33:58.239Z,101465.50
2022-09-21T04:36:26.313Z,101468.13
2022-09-21T04:38:52.795Z,101479.47
2022-09-21T04:41:20.749Z,101490.81
2022-09-21T04:43:49.655Z,101485.63
2022-09-21T04:46:18.160Z,101486.50
2022-09-21T04:48:49.031Z,101495.28
2022-09-21T04:51:17.884Z,101488.31
2022-09-21T04:53:46.351Z,101493.59
2022-09-21T04:56:16.557Z,101490.13
2022-09-21T04:58:45.365Z,101495.41
2022-09-21T05:01:11.996Z,101502.38
2022-09-21T05:03:39.187Z,101502.34
2022-09-21T05:06:06.187Z,101511.94
2022-09-21T05:08:32.739Z,101507.56
2022-09-21T05:11:01.197Z,101520.66
2022-09-21T05:13:27.716Z,101538.09
2022-09-21T05:15:54.301Z,101541.66
2022-09-21T05:18:22.947Z,101450.06
2022-09-21T05:21:05.119Z,101484.06
2022-09-21T05:23:32.212Z,101502.25
2022-09-21T05:26:01.322Z,101514.44
2022-09-21T05:28:35.463Z,101509.19
2022-09-21T05:31:25.436Z,101516.13
2022-09-21T05:33:58.322Z,101517.81
2022-09-21T05:36:39.982Z,101556.19
2022-09-21T05:39:06.757Z,101563.13
2022-09-21T05:41:33.486Z,101566.56
2022-09-21T05:44:00.414Z,101574.41
2022-09-21T05:47:02.116Z,101578.69
2022-09-21T05:49:43.160Z,101586.44
2022-09-21T05:52:31.847Z,101588.84
2022-09-21T05:55:27.692Z,101587.09
2022-09-21T05:58:08.985Z,101611.50
2022-09-21T06:01:06.386Z,101613.16
2022-09-21T06:03:33.200Z,101620.16
2022-09-21T06:05:59.686Z,101617.47
2022-09-21T06:08:27.560Z,101620.03
2022-09-21T06:10:56.531Z,101620.75
2022-09-21T06:13:23.103Z,101616.31
2022-09-21T06:15:53.290Z,101619.69
2022-09-21T06:18:20.194Z,101620.47
2022-09-21T06:20:46.946Z,101628.19
2022-09-21T06:23:16.553Z,101628.03
2022-09-21T06:25:58.518Z,101628.84
2022-09-21T06:28:25.814Z,101636.59
2022-09-21T06:30:53.492Z,101653.91
2022-09-21T06:33:20.672Z,101664.22
2022-09-21T06:35:52.971Z,101666.69
2022-09-21T06:38:19.612Z,101665.66
2022-09-21T06:40:46.052Z,101683.88
2022-09-21T06:43:12.525Z,101698.50
2022-09-21T06:45:42.756Z,101694.75
2022-09-21T06:48:09.478Z,101701.53
2022-09-21T06:50:36.646Z,101704.81
2022-09-21T06:53:09.651Z,101701.81
2022-09-21T06:55:36.145Z,101705.09
2022-09-21T06:58:05.984Z,101704.91
2022-09-21T07:00:35.918Z,101700.13
2022-09-21T07:03:02.368Z,101699.94
2022-09-21T07:05:31.193Z,101720.72
2022-09-21T07:07:58.797Z,101720.47
2022-09-21T07:10:27.587Z,101736.84
2022-09-21T07:12:55.405Z,101740.94
2022-09-21T07:15:21.908Z,101735.41
2022-09-21T07:17:52.385Z,101749.13
2022-09-21T07:20:21.408Z,101744.50
2022-09-21T07:22:48.064Z,101755.59
2022-09-21T07:25:14.571Z,101758.81
2022-09-21T07:27:41.495Z,101758.41
2022-09-21T07:30:09.167Z,101752.81
2022-09-21T07:32:38.299Z,101757.47
2022-09-21T07:35:05.272Z,101752.88
2022-09-21T07:37:32.359Z,101760.28
2022-09-21T07:39:58.855Z,101759.94
2022-09-21T07:42:25.327Z,101755.94
2022-09-21T07:45:03.080Z,101758.16
2022-09-21T07:47:30.140Z,101747.19
2022-09-21T07:49:56.613Z,101746.97
2022-09-21T07:52:24.283Z,101739.50
2022-09-21T07:54:50.841Z,101742.81
2022-09-21T07:57:19.724Z,101743.69
2022-09-21T07:59:52.134Z,101736.25
2022-09-21T08:02:18.685Z,101732.50
2022-09-21T08:04:45.398Z,101734.88
2022-09-21T08:07:13.124Z,101728.22
2022-09-21T08:09:39.717Z,101722.63
2022-09-21T08:12:13.323Z,101713.13
2022-09-21T08:14:42.461Z,101701.06
2022-09-21T08:17:12.177Z,101677.81
2022-09-21T08:19:38.716Z,101663.34
2022-09-21T08:22:06.127Z,101639.19
2022-09-21T08:24:32.780Z,101627.81
2022-09-21T08:26:59.839Z,101601.47
2022-09-21T08:29:26.690Z,101571.13
2022-09-21T08:31:53.502Z,101530.97
2022-09-21T08:34:20.121Z,101486.66
2022-09-21T08:36:46.521Z,101422.81
2022-09-21T08:39:14.140Z,101361.69
2022-09-21T08:41:54.860Z,101392.19
2022-09-21T08:44:27.858Z,101343.41
2022-09-21T08:47:19.806Z,101326.91
2022-09-21T08:49:52.221Z,101283.19
2022-09-21T08:52:26.152Z,101267.94
2022-09-21T08:55:00.164Z,101247.31
2022-09-21T08:57:32.081Z,101259.78
2022-09-21T09:00:00.577Z,101281.22
2022-09-21T09:02:54.764Z,101388.09
2022-09-21T09:05:44.519Z,101445.13
2022-09-21T09:08:32.033Z,101603.47
2022-09-21T09:11:25.853Z,101668.97
2022-09-21T09:14:22.780Z,101691.19
2022-09-21T09:17:11.096Z,101740.38
2022-09-21T09:19:43.471Z,101761.94
2022-09-21T09:22:16.307Z,101734.78
2022-09-21T09:24:56.795Z,101748.41
2022-09-21T09:27:53.437Z,102197.81
2022-09-21T09:30:30.305Z,103007.31
2022-09-21T09:32:59.742Z,103023.72
2022-09-21T09:35:40.201Z,103011.66
2022-09-21T09:38:21.743Z,103017.13
2022-09-21T09:41:12.718Z,103011.47
2022-09-21T09:44:03.775Z,103013.91
2022-09-21T09:47:28.644Z,103025.03
2022-09-21T09:50:21.099Z,103034.88
2022-09-21T09:53:03.582Z,103043.41
2022-09-21T09:55:39.805Z,103041.75
2022-09-21T09:58:26.185Z,103029.53
2022-09-21T10:00:59.270Z,103022.69
2022-09-21T10:03:30.414Z,103030.84
2022-09-21T10:05:56.814Z,103017.19
2022-09-21T10:08:44.644Z,103028.00
2022-09-21T10:11:13.301Z,103020.56
2022-09-21T10:13:42.412Z,103011.72
2022-09-21T10:16:17.821Z,103020.94
2022-09-21T10:18:55.419Z,103020.44
2022-09-21T10:21:25.012Z,103004.56
2022-09-21T10:24:01.653Z,103003.75
2022-09-21T10:26:34.915Z,103018.66
2022-09-21T10:29:17.021Z,103017.66
2022-09-21T10:32:03.948Z,103009.47
2022-09-21T10:34:35.286Z,102987.03
2022-09-21T10:37:22.725Z,102975.88
2022-09-21T10:39:49.086Z,102980.09
2022-09-21T10:42:18.459Z,102969.25
2022-09-21T10:44:53.360Z,102954.31
2022-09-21T10:47:34.183Z,102951.88
2022-09-21T10:50:03.196Z,102963.03
2022-09-21T10:52:40.659Z,102955.16
2022-09-21T10:55:15.077Z,102952.94
2022-09-21T10:57:43.521Z,102948.13
2022-09-21T11:00:29.500Z,102955.41
2022-09-21T11:02:58.883Z,102953.84
2022-09-21T11:05:33.180Z,102957.78
2022-09-21T11:08:15.676Z,102947.75
2022-09-21T11:10:51.800Z,102945.97
2022-09-21T11:13:47.270Z,102949.47
2022-09-21T11:16:13.853Z,102942.03
2022-09-21T11:18:44.313Z,102934.41
2022-09-21T11:21:34.060Z,102927.06
2022-09-21T11:24:36.712Z,102930.81
2022-09-21T11:27:22.657Z,102931.09
2022-09-21T11:30:04.895Z,102940.88
2022-09-21T11:32:56.416Z,102938.09
2022-09-21T11:35:49.537Z,102930.03
2022-09-21T11:38:28.950Z,102951.94
2022-09-21T11:41:09.307Z,102953.34
2022-09-21T11:44:02.907Z,102948.19
2022-09-21T11:46:55.611Z,102939.84
2022-09-21T11:49:31.432Z,102945.38
2022-09-21T11:52:38.508Z,102949.75
2022-09-21T11:55:10.576Z,102960.91
2022-09-21T11:58:23.623Z,102966.00
2022-09-21T12:00:54.042Z,102974.25
2022-09-21T12:04:03.695Z,102964.25
2022-09-21T12:07:08.489Z,102982.97
2022-09-21T12:10:14.023Z,102977.91
2022-09-21T12:12:53.629Z,102983.25
2022-09-21T12:15:20.152Z,102977.66
2022-09-21T12:18:09.700Z,102977.06
2022-09-21T12:20:59.942Z,102982.19
2022-09-21T12:24:05.117Z,102975.13
2022-09-21T12:26:43.288Z,102960.03
2022-09-21T12:29:30.753Z,102962.16
2022-09-21T12:32:08.105Z,102967.88
2022-09-21T12:34:41.643Z,102965.50
2022-09-21T12:37:11.247Z,102968.56
2022-09-21T12:39:44.459Z,102951.38
2022-09-21T12:42:28.053Z,102953.50
2022-09-21T12:45:06.004Z,102955.56
2022-09-21T12:47:38.682Z,102949.44
2022-09-21T12:50:21.583Z,102945.66
2022-09-21T12:52:50.583Z,102950.19
2022-09-21T12:55:33.196Z,102951.53
2022-09-21T12:58:20.885Z,102958.72
2022-09-21T13:00:59.859Z,102945.78
2022-09-21T13:03:37.669Z,102953.50
2022-09-21T13:06:23.026Z,102948.91
2022-09-21T13:11:23.355Z,102945.13
2022-09-21T13:13:58.327Z,102942.06
2022-09-21T13:16:36.237Z,102947.59
2022-09-21T13:19:26.286Z,102944.25
2022-09-21T13:22:11.438Z,102949.22
2022-09-21T13:24:37.971Z,102945.03
2022-09-21T13:27:04.639Z,102940.09
2022-09-21T13:29:36.364Z,102948.94
2022-09-21T13:32:12.277Z,102946.31
2022-09-21T13:34:40.775Z,102932.34
2022-09-21T13:37:19.187Z,102901.09
2022-09-21T13:39:50.957Z,102894.94
2022-09-21T13:42:29.546Z,102915.19
2022-09-21T13:44:57.379Z,102921.59
2022-09-21T13:47:32.306Z,102932.63
2022-09-21T13:50:01.560Z,102928.59
2022-09-21T13:52:37.965Z,102918.56
2022-09-21T13:55:07.371Z,102917.91
2022-09-21T13:57:41.447Z,102922.09
2022-09-21T14:00:31.009Z,102920.16
2022-09-21T14:03:01.666Z,102919.81
2022-09-21T14:05:34.944Z,102918.94
2022-09-21T14:08:21.710Z,102918.22
2022-09-21T14:11:00.184Z,102912.78
2022-09-21T14:14:10.803Z,102908.28
2022-09-21T14:16:40.338Z,102896.94
2022-09-21T14:19:18.544Z,102891.13
2022-09-21T14:22:03.465Z,102884.94
2022-09-21T14:24:35.732Z,102889.44
2022-09-21T14:27:41.154Z,102878.69
2022-09-21T14:30:27.804Z,102865.59
2022-09-21T14:33:00.375Z,102845.63
2022-09-21T14:35:33.778Z,102838.03
2022-09-21T14:38:20.892Z,102834.13
2022-09-21T14:40:51.233Z,102827.97
2022-09-21T14:43:44.857Z,102817.63
2022-09-21T14:46:32.716Z,102795.03
2022-09-21T14:49:33.130Z,102775.22
2022-09-21T14:52:14.261Z,102757.91
2022-09-21T14:55:23.419Z,102747.72
2022-09-21T14:58:07.829Z,102724.97
2022-09-21T15:00:45.798Z,102719.75
2022-09-21T15:03:27.384Z,102707.47
2022-09-21T15:06:14.950Z,102661.44
2022-09-21T15:09:04.144Z,102624.16
2022-09-21T15:11:42.099Z,102612.16
2022-09-21T15:14:44.632Z,102560.41
2022-09-21T15:17:23.787Z,102516.06
2022-09-21T15:19:50.173Z,102489.66
2022-09-21T15:22:19.558Z,102483.34
2022-09-21T15:24:57.257Z,102489.16
2022-09-21T15:27:27.525Z,102487.22
2022-09-21T15:29:56.440Z,102471.25
2022-09-21T15:32:43.412Z,102522.41
2022-09-21T15:35:29.351Z,102553.06
2022-09-21T15:37:57.461Z,102642.09
2022-09-21T15:40:26.634Z,102768.25
2022-09-21T15:43:11.448Z,102851.78
2022-09-21T15:45:49.959Z,102880.31
2022-09-21T15:48:16.670Z,102889.38
2022-09-21T15:50:44.853Z,102874.69
2022-09-21T15:53:25.459Z,102873.38
2022-09-21T15:55:52.409Z,102868.28
2022-09-21T15:58:39.044Z,102868.34
2022-09-21T16:01:14.804Z,102876.81
2022-09-21T16:03:42.685Z,102882.53
2022-09-21T16:06:23.816Z,102871.69
2022-09-21T16:08:50.666Z,102875.88
2022-09-21T16:11:24.424Z,102874.47
2022-09-21T16:14:14.849Z,102874.41
2022-09-21T16:17:10.361Z,102860.50
2022-09-21T16:19:40.476Z,102856.53
2022-09-21T16:22:21.238Z,102855.63
2022-09-21T16:24:56.273Z,102861.38
2022-09-21T16:27:27.116Z,102848.00
2022-09-21T16:29:55.172Z,102845.88
2022-09-21T16:32:30.350Z,102844.00
2022-09-21T16:35:28.785Z,102834.41
2022-09-21T16:37:57.833Z,102840.47
2022-09-21T16:40:26.319Z,102835.53
2022-09-21T16:42:52.792Z,102834.19
2022-09-21T16:45:30.796Z,102830.38
2022-09-21T16:47:58.179Z,102822.97
2022-09-21T16:50:24.797Z,102804.81
2022-09-21T16:52:51.523Z,102779.56
2022-09-21T16:55:24.451Z,102746.56
2022-09-21T16:58:03.946Z,102719.91
2022-09-21T17:00:37.302Z,102664.63
2022-09-21T17:03:04.104Z,102599.63
2022-09-21T17:05:30.629Z,102561.25
2022-09-21T17:07:59.170Z,102543.34
2022-09-21T17:10:30.942Z,102529.16
2022-09-21T17:13:00.067Z,102514.09
2022-09-21T17:15:28.206Z,102508.50
2022-09-21T17:17:54.851Z,102449.81
2022-09-21T17:20:37.191Z,102403.34
2022-09-21T17:23:06.858Z,102363.44
2022-09-21T17:25:37.756Z,102344.66
2022-09-21T17:28:16.768Z,102280.66
2022-09-21T17:30:45.188Z,102248.47
2022-09-21T17:33:11.903Z,102236.53
2022-09-21T17:35:40.560Z,102220.00
2022-09-21T17:38:11.267Z,102199.94
2022-09-21T17:40:41.240Z,102200.41
2022-09-21T17:43:13.992Z,102184.06
2022-09-21T17:46:03.724Z,102171.31
2022-09-21T17:48:33.870Z,102148.91
2022-09-21T17:51:01.028Z,102142.13
2022-09-21T17:53:27.827Z,102127.56
2022-09-21T17:55:58.134Z,102117.31
2022-09-21T17:58:24.533Z,102096.63
2022-09-21T18:01:03.201Z,102074.00
2022-09-21T18:03:32.448Z,102065.50
2022-09-21T18:05:59.244Z,102053.44
2022-09-21T18:08:27.311Z,102029.19
2022-09-21T18:11:07.880Z,102017.88
2022-09-21T18:13:45.529Z,101999.75
2022-09-21T18:16:20.916Z,101982.44
2022-09-21T18:19:26.216Z,101969.22
2022-09-21T18:21:59.208Z,101954.72
2022-09-21T18:24:30.983Z,101957.56
2022-09-21T18:26:58.646Z,101949.09
2022-09-21T18:29:41.769Z,101939.69
2022-09-21T18:32:27.116Z,101929.47
2022-09-21T18:35:15.887Z,101919.06
2022-09-21T18:37:59.938Z,101921.03
2022-09-21T18:40:54.280Z,101921.19
2022-09-21T18:43:44.756Z,101910.00
2022-09-21T18:46:22.807Z,101912.84
2022-09-21T18:49:21.598Z,101911.28
2022-09-21T18:51:59.658Z,101900.91
2022-09-21T18:54:26.139Z,101900.91
2022-09-21T18:56:53.256Z,101902.78
2022-09-21T18:59:20.018Z,101909.97
2022-09-21T19:01:47.760Z,101895.16
2022-09-21T19:04:15.051Z,101828.50
2022-09-21T19:07:20.046Z,101769.75
2022-09-21T19:10:15.576Z,101767.31
2022-09-21T19:12:42.064Z,101761.19
2022-09-21T19:15:42.244Z,101752.59
2022-09-21T19:18:29.997Z,101756.28
2022-09-21T19:20:56.344Z,101765.16
2022-09-21T19:23:47.673Z,101760.78
2022-09-21T19:26:31.477Z,101760.00
2022-09-21T19:29:24.639Z,101756.47
2022-09-21T19:31:51.091Z,101739.06
2022-09-21T19:34:19.372Z,101730.47
2022-09-21T19:36:46.953Z,101731.50
2022-09-21T19:39:14.060Z,101742.13
2022-09-21T19:42:06.051Z,101737.75
2022-09-21T19:44:50.110Z,101744.09
2022-09-21T19:47:24.763Z,101755.63
2022-09-21T19:49:53.679Z,101750.47
2022-09-21T19:52:28.862Z,101751.88
2022-09-21T19:54:55.580Z,101751.75
2022-09-21T19:57:24.857Z,101767.25
2022-09-21T19:59:57.077Z,101771.19
2022-09-21T20:02:30.548Z,101783.66
2022-09-21T20:05:05.210Z,101787.47
2022-09-21T20:07:54.665Z,101785.94
2022-09-21T20:10:21.279Z,101782.63
2022-09-21T20:13:07.500Z,101785.28
2022-09-21T20:15:44.757Z,101788.09
2022-09-21T20:18:27.121Z,101787.31
2022-09-21T20:20:56.857Z,101784.88
2022-09-21T20:23:25.888Z,101765.75
2022-09-21T20:26:02.855Z,101765.06
2022-09-21T20:28:29.633Z,101765.09
2022-09-21T20:30:58.700Z,101758.16
2022-09-21T20:33:32.770Z,101766.16
2022-09-21T20:36:02.842Z,101762.78
2022-09-21T20:38:30.369Z,101765.47
2022-09-21T20:40:57.476Z,101759.38
2022-09-21T20:43:23.886Z,101753.38
2022-09-21T20:45:50.560Z,101753.47
2022-09-21T20:48:17.168Z,101747.34
2022-09-21T20:50:51.991Z,101742.16
2022-09-21T20:53:27.869Z,101742.25
2022-09-21T20:55:58.689Z,101731.81
2022-09-21T20:58:27.556Z,101747.56
2022-09-21T21:01:00.257Z,101741.53
2022-09-21T21:03:31.342Z,101745.22
2022-09-21T21:06:28.471Z,101729.47
2022-09-21T21:08:58.142Z,101551.03
2022-09-21T21:11:29.339Z,101546.72
2022-09-21T21:13:56.545Z,101569.56
2022-09-21T21:16:30.498Z,101583.59
2022-09-21T21:18:57.396Z,101564.41
2022-09-21T21:21:23.954Z,101550.34
2022-09-21T21:23:52.802Z,101548.56
2022-09-21T21:26:38.134Z,101525.91
2022-09-21T21:29:08.784Z,101528.56
2022-09-21T21:31:35.324Z,101524.28
2022-09-21T21:34:01.759Z,101505.13
2022-09-21T21:36:28.452Z,101499.97
2022-09-21T21:38:54.871Z,101472.94
2022-09-21T21:41:21.273Z,101486.16
2022-09-21T21:43:47.766Z,101475.75
2022-09-21T21:46:14.499Z,101483.63
2022-09-21T21:48:40.944Z,101479.31
2022-09-21T21:51:07.628Z,101475.91
2022-09-21T21:53:39.111Z,101475.84
2022-09-21T21:56:06.367Z,101479.41
2022-09-21T21:58:34.098Z,101483.03
2022-09-21T22:01:10.687Z,101476.91
2022-09-21T22:03:37.949Z,101476.03
2022-09-21T22:06:05.148Z,101483.03
2022-09-21T22:08:35.688Z,101479.59
2022-09-21T22:11:03.314Z,101491.06
2022-09-21T22:13:35.132Z,101467.59
2022-09-21T22:16:10.472Z,101465.94
2022-09-21T22:18:36.874Z,101459.88
2022-09-21T22:21:06.597Z,101470.41
2022-09-21T22:23:33.388Z,101474.84
2022-09-21T22:26:05.442Z,101466.16
2022-09-21T22:28:32.171Z,101457.44
2022-09-21T22:31:00.378Z,101460.06
2022-09-21T22:33:33.182Z,101446.91
2022-09-21T22:36:20.570Z,101439.97
2022-09-21T22:38:47.263Z,101448.81
2022-09-21T22:41:19.179Z,101447.97
2022-09-21T22:43:47.178Z,101448.88
2022-09-21T22:46:14.084Z,101450.72
2022-09-21T22:48:40.544Z,101433.28
2022-09-21T22:51:07.057Z,101429.72
2022-09-21T22:53:33.734Z,101440.25
2022-09-21T22:56:05.200Z,101422.81
2022-09-21T22:58:37.893Z,101440.25
2022-09-21T23:01:20.333Z,101428.94
2022-09-21T23:03:48.463Z,101409.72
2022-09-21T23:06:18.057Z,101409.72
2022-09-21T23:08:51.392Z,101404.47
2022-09-21T23:11:20.700Z,101403.69
2022-09-21T23:13:47.869Z,101404.63
2022-09-21T23:16:15.351Z,101393.41
2022-09-21T23:18:43.183Z,101388.25
2022-09-21T23:21:14.565Z,101404.09
2022-09-21T23:23:41.790Z,101390.31
2022-09-21T23:26:09.981Z,101396.41
2022-09-21T23:28:39.381Z,101388.63
2022-09-21T23:31:10.251Z,101383.38
2022-09-21T23:33:38.919Z,101381.59
2022-09-21T23:36:07.075Z,101366.69
2022-09-21T23:38:33.709Z,101363.25
2022-09-21T23:41:06.597Z,101350.22
2022-09-21T23:43:33.742Z,101322.25
2022-09-21T23:46:00.119Z,101345.00
2022-09-21T23:48:26.758Z,101336.25
2022-09-21T23:50:54.318Z,101330.25
2022-09-21T23:53:21.184Z,101328.56
2022-09-21T23:55:47.580Z,101329.50
2022-09-21T23:58:14.069Z,101332.22
